createdAt,value
2022-09-02T00:00:09.723Z,96522.81
2022-09-02T00:01:24.927Z,96528.31
2022-09-02T00:02:27.147Z,96528.41
2022-09-02T00:03:31.597Z,96529.28
2022-09-02T00:04:33.397Z,96521.50
2022-09-02T00:05:35.066Z,96525.13
2022-09-02T00:06:37.659Z,96520.13
2022-09-02T00:07:39.363Z,96517.78
2022-09-02T00:08:42.225Z,96520.09
2022-09-02T00:09:43.861Z,96509.25
2022-09-02T00:10:46.054Z,96512.44
2022-09-02T00:11:50.087Z,96509.38
2022-09-02T00:12:51.814Z,96517.25
2022-09-02T00:13:53.987Z,96518.84
2022-09-02T00:14:55.555Z,96523.97
2022-09-02T00:15:57.137Z,96527.50
2022-09-02T00:17:01.008Z,96521.72
2022-09-02T00:18:03.838Z,96524.44
2022-09-02T00:19:05.611Z,96523.69
2022-09-02T00:20:07.555Z,96526.81
2022-09-02T00:21:13.725Z,96519.84
2022-09-02T00:22:15.310Z,96519.16
2022-09-02T00:23:17.636Z,96526.22
2022-09-02T00:24:19.740Z,96525.44
2022-09-02T00:25:21.680Z,96527.78
2022-09-02T00:26:23.353Z,96524.72
2022-09-02T00:27:25.355Z,96524.78
2022-09-02T00:28:26.920Z,96515.47
2022-09-02T00:29:29.034Z,96509.72
2022-09-02T00:30:30.950Z,96512.41
2022-09-02T00:31:33.818Z,96508.91
2022-09-02T00:32:35.549Z,96513.97
2022-09-02T00:33:37.149Z,96513.22
2022-09-02T00:34:38.825Z,96515.94
2022-09-02T00:35:41.355Z,96517.09
2022-09-02T00:36:43.404Z,96510.88
2022-09-02T00:37:44.993Z,96518.69
2022-09-02T00:38:47.216Z,96521.41
2022-09-02T00:39:48.964Z,96517.13
2022-09-02T00:40:50.798Z,96518.69
2022-09-02T00:41:52.772Z,96521.78
2022-09-02T00:42:56.186Z,96519.09
2022-09-02T00:44:01.995Z,96521.41
2022-09-02T00:45:06.940Z,96514.78
2022-09-02T00:46:09.683Z,96502.72
2022-09-02T00:47:11.736Z,96498.44
2022-09-02T00:48:13.499Z,96503.88
2022-09-02T00:49:25.017Z,96496.88
2022-09-02T00:50:30.977Z,96494.53
2022-09-02T00:51:44.655Z,96499.16
2022-09-02T00:52:56.618Z,96489.84
2022-09-02T00:53:58.546Z,96492.91
2022-09-02T00:55:05.212Z,96496.03
2022-09-02T00:56:13.096Z,96492.13
2022-09-02T00:57:19.736Z,96489.06
2022-09-02T00:58:25.933Z,96495.69
2022-09-02T00:59:41.128Z,96503.50
2022-09-02T01:00:46.522Z,96506.25
2022-09-02T01:01:48.804Z,96498.09
2022-09-02T01:02:54.419Z,96499.25
2022-09-02T01:03:56.512Z,96507.03
2022-09-02T01:05:00.547Z,96507.03
2022-09-02T01:06:02.772Z,96498.88
2022-09-02T01:07:06.079Z,96498.50
2022-09-02T01:08:07.855Z,96498.88
2022-09-02T01:09:15.143Z,96495.38
2022-09-02T01:10:21.629Z,96497.28
2022-09-02T01:11:24.153Z,96489.94
2022-09-02T01:12:27.850Z,96494.59
2022-09-02T01:13:31.720Z,96495.38
2022-09-02T01:14:35.380Z,96496.16
2022-09-02T01:15:41.064Z,96488.78
2022-09-02T01:16:49.683Z,96493.81
2022-09-02T01:17:52.065Z,96493.00
2022-09-02T01:18:57.410Z,96493.00
2022-09-02T01:20:04.855Z,96493.00
2022-09-02T01:21:06.788Z,96487.53
2022-09-02T01:22:24.016Z,96485.16
2022-09-02T01:23:28.150Z,96487.84
2022-09-02T01:24:31.713Z,96489.06
2022-09-02T01:25:34.741Z,96480.53
2022-09-02T01:26:36.323Z,96486.75
2022-09-02T01:27:38.615Z,96484.41
2022-09-02T01:28:40.341Z,96478.59
2022-09-02T01:29:42.027Z,96475.84
2022-09-02T01:30:48.545Z,96480.81
2022-09-02T01:31:50.665Z,96480.44
2022-09-02T01:32:53.621Z,96488.94
2022-09-02T01:33:55.320Z,96491.59
2022-09-02T01:34:57.938Z,96484.91
2022-09-02T01:35:59.943Z,96488.63
2022-09-02T01:37:01.816Z,96497.13
2022-09-02T01:38:04.249Z,96490.13
2022-09-02T01:39:06.404Z,96496.28
2022-09-02T01:40:10.646Z,96491.59
2022-09-02T01:41:12.313Z,96494.69
2022-09-02T01:42:14.745Z,96495.41
2022-09-02T01:43:21.807Z,96502.75
2022-09-02T01:44:25.076Z,96501.53
2022-09-02T01:45:26.826Z,96504.59
2022-09-02T01:46:28.425Z,96495.97
2022-09-02T01:47:30.560Z,96503.69
2022-09-02T01:48:32.185Z,96498.97
2022-09-02T01:49:35.336Z,96496.59
2022-09-02T01:50:45.130Z,96488.84
2022-09-02T01:51:49.639Z,96489.25
2022-09-02T01:52:51.325Z,96486.97
2022-09-02T01:53:52.894Z,96490.53
2022-09-02T01:54:55.211Z,96483.63
2022-09-02T01:55:56.967Z,96485.19
2022-09-02T01:56:58.639Z,96487.22
2022-09-02T01:58:00.803Z,96488.72
2022-09-02T01:59:03.018Z,96483.97
2022-09-02T02:00:08.428Z,96482.31
2022-09-02T02:01:10.741Z,96476.84
2022-09-02T02:02:14.693Z,96470.97
2022-09-02T02:03:16.785Z,96474.84
2022-09-02T02:04:18.400Z,96472.50
2022-09-02T02:05:20.174Z,96473.22
2022-09-02T02:06:21.797Z,96473.94
2022-09-02T02:07:24.858Z,96466.13
2022-09-02T02:08:26.481Z,96475.03
2022-09-02T02:09:28.511Z,96466.03
2022-09-02T02:10:30.233Z,96465.22
2022-09-02T02:11:32.041Z,96459.31
2022-09-02T02:12:33.723Z,96459.69
2022-09-02T02:13:35.547Z,96454.22
2022-09-02T02:14:37.705Z,96453.50
2022-09-02T02:15:41.739Z,96450.50
2022-09-02T02:16:43.645Z,96457.59
2022-09-02T02:17:46.012Z,96444.34
2022-09-02T02:18:47.878Z,96443.50
2022-09-02T02:19:49.516Z,96448.13
2022-09-02T02:20:51.136Z,96449.69
2022-09-02T02:21:53.848Z,96447.66
2022-09-02T02:22:55.744Z,96443.72
2022-09-02T02:24:00.429Z,96448.78
2022-09-02T02:25:02.055Z,96451.03
2022-09-02T02:26:04.184Z,96448.69
2022-09-02T02:27:06.116Z,96453.72
2022-09-02T02:28:07.839Z,96447.13
2022-09-02T02:29:09.887Z,96444.03
2022-09-02T02:30:13.648Z,96447.50
2022-09-02T02:31:15.298Z,96443.94
2022-09-02T02:32:18.548Z,96437.69
2022-09-02T02:33:20.214Z,96443.91
2022-09-02T02:34:22.279Z,96440.75
2022-09-02T02:35:23.937Z,96439.22
2022-09-02T02:36:26.020Z,96441.50
2022-09-02T02:37:27.708Z,96442.22
2022-09-02T02:38:29.686Z,96446.81
2022-09-02T02:39:31.979Z,96439.78
2022-09-02T02:40:33.631Z,96437.41
2022-09-02T02:41:36.181Z,96442.38
2022-09-02T02:42:38.271Z,96440.03
2022-09-02T02:43:40.559Z,96436.47
2022-09-02T02:44:42.686Z,96431.00
2022-09-02T02:45:44.291Z,96434.88
2022-09-02T02:46:45.991Z,96430.13
2022-09-02T02:47:47.683Z,96425.88
2022-09-02T02:48:49.578Z,96426.28
2022-09-02T02:49:51.140Z,96425.09
2022-09-02T02:50:52.735Z,96417.28
2022-09-02T02:51:54.339Z,96420.38
2022-09-02T02:52:56.450Z,96417.63
2022-09-02T02:53:59.802Z,96420.72
2022-09-02T02:55:01.860Z,96414.47
2022-09-02T02:56:04.469Z,96425.06
2022-09-02T02:57:07.813Z,96424.63
2022-09-02T02:58:09.619Z,96429.75
2022-09-02T02:59:11.369Z,96428.97
2022-09-02T03:00:22.491Z,96426.22
2022-09-02T03:01:24.128Z,96425.09
2022-09-02T03:02:25.793Z,96438.72
2022-09-02T03:03:28.013Z,96428.25
2022-09-02T03:04:29.950Z,96430.19
2022-09-02T03:05:32.426Z,96430.97
2022-09-02T03:06:35.799Z,96426.28
2022-09-02T03:07:37.432Z,96432.50
2022-09-02T03:08:39.044Z,96430.91
2022-09-02T03:09:40.808Z,96428.19
2022-09-02T03:10:43.171Z,96424.28
2022-09-02T03:11:44.725Z,96429.31
2022-09-02T03:12:47.602Z,96416.81
2022-09-02T03:13:52.038Z,96427.72
2022-09-02T03:14:53.767Z,96425.09
2022-09-02T03:15:55.385Z,96439.78
2022-09-02T03:16:57.416Z,96436.78
2022-09-02T03:17:59.573Z,96439.16
2022-09-02T03:19:01.951Z,96435.41
2022-09-02T03:20:05.897Z,96441.03
2022-09-02T03:21:08.780Z,96437.34
2022-09-02T03:22:11.006Z,96438.31
2022-09-02T03:23:13.238Z,96443.09
2022-09-02T03:24:15.131Z,96440.06
2022-09-02T03:25:20.720Z,96438.53
2022-09-02T03:26:24.712Z,96442.53
2022-09-02T03:27:26.331Z,96448.00
2022-09-02T03:28:28.359Z,96445.72
2022-09-02T03:29:30.136Z,96443.44
2022-09-02T03:30:33.583Z,96452.44
2022-09-02T03:31:35.327Z,96441.97
2022-09-02T03:32:37.573Z,96448.59
2022-09-02T03:33:39.345Z,96447.44
2022-09-02T03:34:41.846Z,96456.72
2022-09-02T03:35:45.367Z,96447.44
2022-09-02T03:36:47.340Z,96449.84
2022-09-02T03:37:51.215Z,96447.13
2022-09-02T03:38:53.147Z,96449.84
2022-09-02T03:39:54.693Z,96445.19
2022-09-02T03:40:56.354Z,96445.69
2022-09-02T03:41:57.965Z,96440.69
2022-09-02T03:43:00.705Z,96439.59
2022-09-02T03:44:02.644Z,96441.97
2022-09-02T03:45:05.555Z,96445.06
2022-09-02T03:46:07.410Z,96436.91
2022-09-02T03:47:09.097Z,96441.53
2022-09-02T03:48:13.250Z,96438.47
2022-09-02T03:49:15.026Z,96446.97
2022-09-02T03:50:25.766Z,96446.97
2022-09-02T03:51:28.073Z,96441.53
2022-09-02T03:52:29.891Z,96440.78
2022-09-02T03:53:31.896Z,96446.97
2022-09-02T03:54:33.477Z,96452.06
2022-09-02T03:55:37.308Z,96443.94
2022-09-02T03:56:39.050Z,96443.50
2022-09-02T03:57:41.614Z,96447.00
2022-09-02T03:58:45.446Z,96444.69
2022-09-02T03:59:47.018Z,96450.09
2022-09-02T04:00:53.257Z,96452.81
2022-09-02T04:01:55.722Z,96450.09
2022-09-02T04:02:59.017Z,96450.91
2022-09-02T04:04:01.768Z,96459.44
2022-09-02T04:05:04.197Z,96448.53
2022-09-02T04:06:06.387Z,96455.53
2022-09-02T04:07:07.967Z,96454.72
2022-09-02T04:08:09.548Z,96448.09
2022-09-02T04:09:11.150Z,96446.88
2022-09-02T04:10:12.889Z,96454.19
2022-09-02T04:11:17.844Z,96448.66
2022-09-02T04:12:19.476Z,96451.38
2022-09-02T04:13:21.320Z,96454.47
2022-09-02T04:14:23.120Z,96457.50
2022-09-02T04:15:25.239Z,96459.00
2022-09-02T04:16:29.767Z,96458.94
2022-09-02T04:17:31.593Z,96466.31
2022-09-02T04:18:33.234Z,96462.81
2022-09-02T04:19:34.993Z,96471.06
2022-09-02T04:20:39.679Z,96470.31
2022-09-02T04:21:42.140Z,96467.63
2022-09-02T04:22:44.565Z,96464.97
2022-09-02T04:23:46.236Z,96465.75
2022-09-02T04:24:47.811Z,96467.72
2022-09-02T04:25:49.559Z,96464.63
2022-09-02T04:26:51.221Z,96470.00
2022-09-02T04:27:52.813Z,96466.84
2022-09-02T04:28:54.588Z,96471.50
2022-09-02T04:29:56.420Z,96470.78
2022-09-02T04:30:58.240Z,96472.75
2022-09-02T04:31:59.991Z,96467.72
2022-09-02T04:33:01.643Z,96470.13
2022-09-02T04:34:03.725Z,96469.38
2022-09-02T04:35:05.704Z,96467.44
2022-09-02T04:36:10.161Z,96468.22
2022-09-02T04:37:14.642Z,96463.94
2022-09-02T04:38:17.968Z,96470.16
2022-09-02T04:39:19.882Z,96468.56
2022-09-02T04:40:21.573Z,96466.97
2022-09-02T04:41:27.013Z,96470.41
2022-09-02T04:42:28.567Z,96471.50
2022-09-02T04:43:30.191Z,96471.41
2022-09-02T04:44:32.170Z,96477.94
2022-09-02T04:45:33.753Z,96476.66
2022-09-02T04:46:35.426Z,96467.28
2022-09-02T04:47:37.133Z,96470.72
2022-09-02T04:48:39.317Z,96473.41
2022-09-02T04:49:43.232Z,96478.06
2022-09-02T04:50:45.332Z,96477.34
2022-09-02T04:51:46.967Z,96478.53
2022-09-02T04:52:48.516Z,96478.91
2022-09-02T04:53:52.521Z,96477.34
2022-09-02T04:54:54.155Z,96478.16
2022-09-02T04:55:58.111Z,96475.44
2022-09-02T04:57:00.531Z,96482.84
2022-09-02T04:58:02.168Z,96477.41
2022-09-02T04:59:04.404Z,96487.56
2022-09-02T05:00:07.486Z,96482.84
2022-09-02T05:01:14.881Z,96483.63
2022-09-02T05:02:16.683Z,96483.53
2022-09-02T05:03:20.139Z,96487.41
2022-09-02T05:04:23.069Z,96491.31
2022-09-02T05:05:24.688Z,96495.13
2022-09-02T05:06:28.207Z,96493.59
2022-09-02T05:07:31.100Z,96489.25
2022-09-02T05:08:33.592Z,96496.69
2022-09-02T05:09:35.263Z,96498.63
2022-09-02T05:10:40.022Z,96495.19
2022-09-02T05:11:41.887Z,96499.91
2022-09-02T05:12:43.515Z,96505.00
2022-09-02T05:13:51.412Z,96493.41
2022-09-02T05:14:53.465Z,96502.38
2022-09-02T05:15:55.088Z,96507.47
2022-09-02T05:16:56.834Z,96494.63
2022-09-02T05:17:58.412Z,96498.56
2022-09-02T05:19:00.620Z,96502.13
2022-09-02T05:20:04.826Z,96508.00
2022-09-02T05:21:06.929Z,96504.13
2022-09-02T05:22:08.622Z,96501.84
2022-09-02T05:23:12.235Z,96508.88
2022-09-02T05:24:14.538Z,96496.47
2022-09-02T05:25:16.363Z,96496.53
2022-09-02T05:26:18.201Z,96499.63
2022-09-02T05:27:20.418Z,96501.19
2022-09-02T05:28:22.850Z,96502.34
2022-09-02T05:29:24.816Z,96498.84
2022-09-02T05:30:26.449Z,96501.19
2022-09-02T05:31:29.113Z,96508.19
2022-09-02T05:32:34.463Z,96507.03
2022-09-02T05:33:41.172Z,96503.13
2022-09-02T05:34:42.988Z,96509.75
2022-09-02T05:35:45.877Z,96504.66
2022-09-02T05:36:48.648Z,96500.31
2022-09-02T05:37:50.245Z,96500.72
2022-09-02T05:38:52.185Z,96503.03
2022-09-02T05:39:53.911Z,96513.50
2022-09-02T05:40:56.117Z,96511.16
2022-09-02T05:41:58.506Z,96512.69
2022-09-02T05:43:00.349Z,96516.53
2022-09-02T05:44:03.908Z,96515.75
2022-09-02T05:45:06.696Z,96505.59
2022-09-02T05:46:10.707Z,96509.88
2022-09-02T05:47:13.034Z,96511.03
2022-09-02T05:48:33.554Z,96513.38
2022-09-02T05:49:35.118Z,96503.28
2022-09-02T05:50:37.871Z,96519.63
2022-09-02T05:51:49.580Z,96518.06
2022-09-02T05:52:51.493Z,96515.63
2022-09-02T05:53:54.940Z,96521.78
2022-09-02T05:54:56.804Z,96523.31
2022-09-02T05:55:58.951Z,96520.56
2022-09-02T05:57:04.889Z,96520.94
2022-09-02T05:58:06.476Z,96520.50
2022-09-02T05:59:08.790Z,96518.50
2022-09-02T06:00:11.254Z,96520.78
2022-09-02T06:01:19.965Z,96527.72
2022-09-02T06:02:22.792Z,96527.72
2022-09-02T06:03:24.622Z,96535.13
2022-09-02T06:04:26.422Z,96522.63
2022-09-02T06:05:28.055Z,96525.00
2022-09-02T06:06:30.359Z,96525.34
2022-09-02T06:07:31.966Z,96524.09
2022-09-02T06:08:34.691Z,96525.22
2022-09-02T06:09:36.354Z,96527.06
2022-09-02T06:10:42.271Z,96525.81
2022-09-02T06:11:46.300Z,96530.03
2022-09-02T06:12:48.812Z,96529.63
2022-09-02T06:13:52.601Z,96534.97
2022-09-02T06:14:54.235Z,96530.28
2022-09-02T06:15:57.946Z,96529.50
2022-09-02T06:16:59.785Z,96534.56
2022-09-02T06:18:01.402Z,96532.59
2022-09-02T06:19:04.953Z,96524.03
2022-09-02T06:20:07.141Z,96540.78
2022-09-02T06:21:08.790Z,96538.44
2022-09-02T06:22:11.452Z,96529.44
2022-09-02T06:23:14.870Z,96529.06
2022-09-02T06:24:17.098Z,96529.44
2022-09-02T06:25:20.954Z,96530.19
2022-09-02T06:26:23.024Z,96528.69
2022-09-02T06:27:24.759Z,96531.06
2022-09-02T06:28:26.585Z,96532.59
2022-09-02T06:29:28.219Z,96529.56
2022-09-02T06:30:29.920Z,96528.06
2022-09-02T06:31:34.648Z,96526.94
2022-09-02T06:32:36.535Z,96527.38
2022-09-02T06:33:38.287Z,96525.81
2022-09-02T06:34:41.036Z,96528.22
2022-09-02T06:35:45.736Z,96523.16
2022-09-02T06:36:49.086Z,96524.00
2022-09-02T06:37:51.400Z,96518.66
2022-09-02T06:38:55.072Z,96520.66
2022-09-02T06:39:57.249Z,96521.53
2022-09-02T06:40:59.149Z,96524.66
2022-09-02T06:42:01.087Z,96521.56
2022-09-02T06:43:02.765Z,96527.78
2022-09-02T06:44:07.150Z,96525.00
2022-09-02T06:45:09.553Z,96523.84
2022-09-02T06:46:23.743Z,96519.16
2022-09-02T06:47:25.324Z,96532.00
2022-09-02T06:48:27.011Z,96526.13
2022-09-02T06:49:29.264Z,96531.50
2022-09-02T06:50:30.911Z,96534.47
2022-09-02T06:51:39.744Z,96537.88
2022-09-02T06:52:41.380Z,96545.22
2022-09-02T06:53:42.968Z,96538.13
2022-09-02T06:54:44.605Z,96544.34
2022-09-02T06:55:46.932Z,96538.84
2022-09-02T06:56:50.094Z,96542.28
2022-09-02T06:57:51.717Z,96545.78
2022-09-02T06:58:53.704Z,96535.66
2022-09-02T07:00:01.940Z,96537.16
2022-09-02T07:01:04.313Z,96541.03
2022-09-02T07:02:06.158Z,96537.88
2022-09-02T07:03:28.193Z,96539.03
2022-09-02T07:04:48.788Z,96540.13
2022-09-02T07:06:11.031Z,96545.47
2022-09-02T07:07:12.887Z,96547.00
2022-09-02T07:08:14.462Z,96543.81
2022-09-02T07:09:19.202Z,96539.91
2022-09-02T07:10:20.793Z,96543.72
2022-09-02T07:11:24.098Z,96546.78
2022-09-02T07:12:27.369Z,96545.94
2022-09-02T07:13:29.241Z,96540.41
2022-09-02T07:14:31.037Z,96540.38
2022-09-02T07:15:33.181Z,96536.34
2022-09-02T07:16:38.475Z,96544.09
2022-09-02T07:17:40.256Z,96549.94
2022-09-02T07:18:43.043Z,96544.41
2022-09-02T07:19:45.201Z,96554.09
2022-09-02T07:20:48.790Z,96549.34
2022-09-02T07:21:51.000Z,96550.88
2022-09-02T07:22:52.835Z,96551.75
2022-09-02T07:23:55.157Z,96558.84
2022-09-02T07:24:58.648Z,96554.09
2022-09-02T07:26:00.289Z,96555.22
2022-09-02T07:27:01.985Z,96552.06
2022-09-02T07:28:03.683Z,96551.59
2022-09-02T07:29:08.815Z,96546.81
2022-09-02T07:30:12.814Z,96543.66
2022-09-02T07:31:16.429Z,96551.44
2022-09-02T07:32:18.669Z,96546.72
2022-09-02T07:33:20.950Z,96551.44
2022-09-02T07:34:22.603Z,96549.13
2022-09-02T07:35:24.647Z,96559.28
2022-09-02T07:36:27.567Z,96550.66
2022-09-02T07:37:29.187Z,96550.19
2022-09-02T07:38:31.539Z,96555.63
2022-09-02T07:39:33.418Z,96566.69
2022-09-02T07:40:36.398Z,96563.53
2022-09-02T07:41:40.081Z,96560.00
2022-09-02T07:42:41.745Z,96564.69
2022-09-02T07:43:46.256Z,96562.59
2022-09-02T07:44:50.123Z,96561.69
2022-09-02T07:45:53.404Z,96563.25
2022-09-02T07:46:55.680Z,96551.19
2022-09-02T07:47:57.919Z,96557.72
2022-09-02T07:49:01.849Z,96550.09
2022-09-02T07:50:21.497Z,96561.81
2022-09-02T07:51:24.328Z,96568.00
2022-09-02T07:52:32.344Z,96564.06
2022-09-02T07:53:35.257Z,96564.91
2022-09-02T07:54:36.915Z,96568.00
2022-09-02T07:55:41.208Z,96564.47
2022-09-02T07:56:43.320Z,96562.53
2022-09-02T07:57:45.615Z,96564.44
2022-09-02T07:58:47.911Z,96558.53
2022-09-02T07:59:49.558Z,96560.03
2022-09-02T08:00:52.242Z,96559.31
2022-09-02T08:01:54.130Z,96559.50
2022-09-02T08:02:56.150Z,96558.59
2022-09-02T08:04:00.356Z,96568.69
2022-09-02T08:05:05.020Z,96548.28
2022-09-02T08:06:07.393Z,96564.53
2022-09-02T08:07:09.068Z,96561.47
2022-09-02T08:08:10.832Z,96559.84
2022-09-02T08:09:12.539Z,96560.97
2022-09-02T08:10:16.283Z,96559.81
2022-09-02T08:11:17.978Z,96562.88
2022-09-02T08:12:21.732Z,96561.97
2022-09-02T08:13:27.051Z,96559.59
2022-09-02T08:14:29.709Z,96560.38
2022-09-02T08:15:32.275Z,96563.09
2022-09-02T08:16:34.334Z,96561.19
2022-09-02T08:17:36.158Z,96561.19
2022-09-02T08:18:37.864Z,96555.38
2022-09-02T08:19:39.455Z,96553.47
2022-09-02T08:20:41.087Z,96554.31
2022-09-02T08:21:42.749Z,96550.75
2022-09-02T08:22:46.747Z,96548.88
2022-09-02T08:23:53.681Z,96544.38
2022-09-02T08:24:55.355Z,96552.84
2022-09-02T08:26:00.456Z,96547.66
2022-09-02T08:27:02.266Z,96544.78
2022-09-02T08:28:04.045Z,96544.66
2022-09-02T08:29:07.677Z,96549.28
2022-09-02T08:30:10.352Z,96549.63
2022-09-02T08:31:12.349Z,96547.59
2022-09-02T08:32:14.196Z,96549.84
2022-09-02T08:33:15.814Z,96550.81
2022-09-02T08:34:17.577Z,96551.22
2022-09-02T08:35:19.466Z,96554.53
2022-09-02T08:36:21.211Z,96552.28
2022-09-02T08:37:22.805Z,96556.72
2022-09-02T08:38:24.426Z,96552.19
2022-09-02T08:39:26.342Z,96553.47
2022-09-02T08:40:37.288Z,96546.75
2022-09-02T08:41:57.681Z,96548.84
2022-09-02T08:43:01.081Z,96553.19
2022-09-02T08:44:05.123Z,96563.19
2022-09-02T08:45:14.846Z,96552.59
2022-09-02T08:46:18.857Z,96551.78
2022-09-02T08:47:25.415Z,96549.63
2022-09-02T08:48:40.643Z,96551.25
2022-09-02T08:49:47.020Z,96553.13
2022-09-02T08:50:52.754Z,96549.22
2022-09-02T08:52:01.065Z,96552.06
2022-09-02T08:53:16.327Z,96556.94
2022-09-02T08:54:46.120Z,96558.16
2022-09-02T08:55:54.938Z,96558.75
2022-09-02T08:56:58.115Z,96558.41
2022-09-02T08:58:01.976Z,96561.91
2022-09-02T08:59:04.345Z,96559.53
2022-09-02T09:00:07.354Z,96553.69
2022-09-02T09:01:18.120Z,96558.16
2022-09-02T09:02:25.468Z,96557.22
2022-09-02T09:03:33.645Z,96551.72
2022-09-02T09:04:38.027Z,96555.59
2022-09-02T09:05:54.843Z,96554.19
2022-09-02T09:07:11.420Z,96544.44
2022-09-02T09:08:25.785Z,96548.19
2022-09-02T09:09:30.359Z,96541.38
2022-09-02T09:10:32.920Z,96540.44
2022-09-02T09:11:57.330Z,96538.63
2022-09-02T09:13:08.887Z,96538.97
2022-09-02T09:14:31.262Z,96539.84
2022-09-02T09:15:59.153Z,96530.06
2022-09-02T09:17:08.638Z,96535.53
2022-09-02T09:18:19.262Z,96531.25
2022-09-02T09:19:33.014Z,96525.25
2022-09-02T09:20:38.796Z,96531.09
2022-09-02T09:21:42.186Z,96534.50
2022-09-02T09:22:44.108Z,96531.16
2022-09-02T09:23:46.720Z,96524.81
2022-09-02T09:24:50.423Z,96533.63
2022-09-02T09:25:56.281Z,96529.25
2022-09-02T09:26:59.123Z,96534.44
2022-09-02T09:28:01.724Z,96526.56
2022-09-02T09:29:04.863Z,96525.69
2022-09-02T09:30:14.914Z,96518.66
2022-09-02T09:31:22.061Z,96516.28
2022-09-02T09:32:30.124Z,96514.56
2022-09-02T09:33:31.716Z,96521.56
2022-09-02T09:34:52.383Z,96510.84
2022-09-02T09:35:56.102Z,96512.09
2022-09-02T09:36:58.708Z,96513.44
2022-09-02T09:38:12.601Z,96506.91
2022-09-02T09:39:18.386Z,96515.63
2022-09-02T09:40:25.746Z,96517.50
2022-09-02T09:41:29.048Z,96515.78
2022-09-02T09:42:36.310Z,96516.44
2022-09-02T09:43:37.992Z,96515.59
2022-09-02T09:44:45.812Z,96516.44
2022-09-02T09:45:49.374Z,96509.25
2022-09-02T09:47:06.208Z,96507.31
2022-09-02T09:48:19.398Z,96511.44
2022-09-02T09:49:27.792Z,96502.13
2022-09-02T09:50:29.414Z,96511.03
2022-09-02T09:51:31.019Z,96510.84
2022-09-02T09:52:51.899Z,96504.09
2022-09-02T09:54:16.515Z,96506.28
2022-09-02T09:55:24.959Z,96506.00
2022-09-02T09:56:32.260Z,96506.13
2022-09-02T09:57:44.798Z,96508.81
2022-09-02T09:58:48.918Z,96502.59
2022-09-02T09:59:50.791Z,96500.09
2022-09-02T10:00:56.336Z,96500.84
2022-09-02T10:01:58.192Z,96502.00
2022-09-02T10:03:06.453Z,96503.06
2022-09-02T10:04:42.429Z,96501.44
2022-09-02T10:05:40.586Z,96499.88
2022-09-02T10:06:43.905Z,96498.69
2022-09-02T10:08:01.972Z,96499.97
2022-09-02T10:09:23.604Z,96493.97
2022-09-02T10:10:27.560Z,96498.66
2022-09-02T10:11:30.135Z,96490.34
2022-09-02T10:12:33.744Z,96496.16
2022-09-02T10:13:37.851Z,96494.75
2022-09-02T10:14:42.175Z,96502.13
2022-09-02T10:15:59.663Z,96493.47
2022-09-02T10:17:42.103Z,96500.72
2022-09-02T10:18:51.070Z,96495.03
2022-09-02T10:20:08.059Z,96489.88
2022-09-02T10:21:29.847Z,96486.59
2022-09-02T10:22:59.875Z,96486.47
2022-09-02T10:24:36.641Z,96489.44
2022-09-02T10:25:52.013Z,96477.47
2022-09-02T10:26:57.468Z,96475.59
2022-09-02T10:28:31.420Z,96471.84
2022-09-02T10:29:47.429Z,96472.94
2022-09-02T10:31:20.885Z,96471.31
2022-09-02T10:32:27.953Z,96477.34
2022-09-02T10:33:40.954Z,96474.81
2022-09-02T10:35:11.732Z,96471.31
2022-09-02T10:36:25.164Z,96469.88
2022-09-02T10:37:53.410Z,96462.44
2022-09-02T10:39:08.310Z,96466.84
2022-09-02T10:40:19.543Z,96463.66
2022-09-02T10:43:33.329Z,96460.47
2022-09-02T10:44:58.426Z,96456.53
2022-09-02T10:46:01.422Z,96457.72
2022-09-02T10:47:29.396Z,96452.13
2022-09-02T10:48:43.669Z,96458.63
2022-09-02T10:50:03.976Z,96458.19
2022-09-02T10:51:42.716Z,96466.97
2022-09-02T10:52:59.304Z,96463.34
2022-09-02T10:54:48.840Z,96463.03
2022-09-02T10:56:01.258Z,96469.97
2022-09-02T10:57:10.952Z,96469.00
2022-09-02T10:58:19.851Z,96473.72
2022-09-02T10:59:49.640Z,96471.75
2022-09-02T11:00:55.005Z,96466.47
2022-09-02T11:02:06.333Z,96468.81
2022-09-02T11:03:14.438Z,96470.31
2022-09-02T11:04:27.984Z,96469.44
2022-09-02T11:05:52.971Z,96472.41
2022-09-02T11:07:04.551Z,96474.72
2022-09-02T11:08:14.700Z,96481.09
2022-09-02T11:09:52.889Z,96484.38
2022-09-02T11:11:01.145Z,96476.88
2022-09-02T11:12:22.427Z,96479.09
2022-09-02T11:13:44.265Z,96474.28
2022-09-02T11:15:13.408Z,96476.25
2022-09-02T11:16:19.980Z,96472.31
2022-09-02T11:17:44.559Z,96474.59
2022-09-02T11:19:00.981Z,96471.31
2022-09-02T11:20:27.098Z,96476.91
2022-09-02T11:21:58.911Z,96482.63
2022-09-02T11:23:04.014Z,96484.28
2022-09-02T11:24:21.768Z,96486.25
2022-09-02T11:25:41.696Z,96475.81
2022-09-02T11:26:49.369Z,96476.69
2022-09-02T11:28:06.386Z,96479.75
2022-09-02T11:29:27.203Z,96476.47
2022-09-02T11:30:57.407Z,96478.66
2022-09-02T11:32:29.610Z,96476.91
2022-09-02T11:33:59.014Z,96478.47
2022-09-02T11:35:07.106Z,96486.94
2022-09-02T11:36:08.904Z,96480.22
2022-09-02T11:37:46.364Z,96480.56
2022-09-02T11:39:10.808Z,96470.66
2022-09-02T11:40:34.375Z,96475.38
2022-09-02T11:42:04.872Z,96476.56
2022-09-02T11:43:33.454Z,96470.78
2022-09-02T11:45:09.503Z,96469.78
2022-09-02T11:46:20.294Z,96460.00
2022-09-02T11:48:00.708Z,96467.03
2022-09-02T11:49:18.175Z,96461.72
2022-09-02T11:50:41.595Z,96461.66
2022-09-02T11:52:05.620Z,96458.13
2022-09-02T11:53:19.050Z,96460.88
2022-09-02T11:54:24.058Z,96460.97
2022-09-02T11:55:40.464Z,96464.06
2022-09-02T11:56:45.623Z,96462.44
2022-09-02T11:57:57.601Z,96461.53
2022-09-02T11:59:00.149Z,96459.69
2022-09-02T12:00:04.692Z,96456.38
2022-09-02T12:01:18.444Z,96461.84
2022-09-02T12:02:56.623Z,96450.31
2022-09-02T12:05:37.395Z,96455.00
2022-09-02T12:07:09.589Z,96458.53
2022-09-02T12:08:34.981Z,96452.16
2022-09-02T12:09:51.035Z,96453.91
2022-09-02T12:10:52.561Z,96446.44
2022-09-02T12:11:55.132Z,96447.44
2022-09-02T12:12:56.785Z,96445.69
2022-09-02T12:14:01.791Z,96450.31
2022-09-02T12:15:06.712Z,96448.78
2022-09-02T12:16:41.178Z,96452.38
2022-09-02T12:18:05.489Z,96458.22
2022-09-02T12:19:10.898Z,96455.34
2022-09-02T12:20:43.313Z,96463.03
2022-09-02T12:22:17.533Z,96467.66
2022-09-02T12:23:51.125Z,96457.03
2022-09-02T12:24:55.763Z,96460.06
2022-09-02T12:26:02.400Z,96452.53
2022-09-02T12:27:07.822Z,96456.69
2022-09-02T12:28:25.480Z,96442.75
2022-09-02T12:29:27.415Z,96441.22
2022-09-02T12:31:05.545Z,96440.22
2022-09-02T12:32:08.913Z,96442.53
2022-09-02T12:33:13.490Z,96443.31
2022-09-02T12:34:20.984Z,96431.56
2022-09-02T12:35:57.605Z,96438.34
2022-09-02T12:37:01.268Z,96432.78
2022-09-02T12:38:11.796Z,96430.34
2022-09-02T12:39:35.281Z,96427.94
2022-09-02T12:40:49.772Z,96424.41
2022-09-02T12:42:06.554Z,96420.34
2022-09-02T12:43:25.799Z,96421.25
2022-09-02T12:45:01.220Z,96426.59
2022-09-02T12:46:41.346Z,96415.16
2022-09-02T12:48:01.158Z,96422.50
2022-09-02T12:49:29.542Z,96413.31
2022-09-02T12:50:54.737Z,96415.97
2022-09-02T12:51:58.404Z,96411.16
2022-09-02T12:53:12.017Z,96410.91
2022-09-02T12:54:15.968Z,96415.91
2022-09-02T12:55:31.939Z,96413.81
2022-09-02T12:56:33.634Z,96414.59
2022-09-02T12:57:40.592Z,96417.81
2022-09-02T12:58:48.179Z,96418.59
2022-09-02T12:59:51.697Z,96422.47
2022-09-02T13:01:01.169Z,96416.97
2022-09-02T13:02:05.697Z,96410.31
2022-09-02T13:03:36.096Z,96417.09